sensor_id;sensor_type;location;lat;lon;timestamp;noise_LAeq;noise_LA_min;noise_LA_max;noise_LA01;noise_LA95
72276;Laerm;61204;49.980;8.358;2023-02-15T00:01:32;43.59;38.79;56.65;;
72276;Laerm;61204;49.980;8.358;2023-02-15T00:03:58;48.41;39.65;61.56;;
72276;Laerm;61204;49.980;8.358;2023-02-15T00:06:24;51.01;41.54;59.02;;
72276;Laerm;61204;49.980;8.358;2023-02-15T00:08:53;46.88;39.16;58.41;;
72276;Laerm;61204;49.980;8.358;2023-02-15T00:11:21;47.34;41.60;60.61;;
72276;Laerm;61204;49.980;8.358;2023-02-15T00:14:12;44.67;38.08;56.05;;
72276;Laerm;61204;49.980;8.358;2023-02-15T00:16:42;45.58;39.23;61.52;;
72276;Laerm;61204;49.980;8.358;2023-02-15T00:19:09;45.25;40.26;58.28;;
72276;Laerm;61204;49.980;8.358;2023-02-15T00:21:37;45.49;40.13;57.42;;
72276;Laerm;61204;49.980;8.358;2023-02-15T00:24:05;45.43;39.99;56.00;;
72276;Laerm;61204;49.980;8.358;2023-02-15T00:26:32;45.00;38.76;58.21;;
72276;Laerm;61204;49.980;8.358;2023-02-15T00:28:58;43.85;39.77;52.61;;
72276;Laerm;61204;49.980;8.358;2023-02-15T00:31:24;43.85;39.79;49.84;;
72276;Laerm;61204;49.980;8.358;2023-02-15T00:33:50;44.69;40.58;57.22;;
72276;Laerm;61204;49.980;8.358;2023-02-15T00:36:16;48.58;39.38;61.60;;
72276;Laerm;61204;49.980;8.358;2023-02-15T00:38:41;48.73;40.19;62.16;;
72276;Laerm;61204;49.980;8.358;2023-02-15T00:41:08;44.45;36.76;58.74;;
72276;Laerm;61204;49.980;8.358;2023-02-15T00:43:34;44.24;36.92;54.99;;
72276;Laerm;61204;49.980;8.358;2023-02-15T00:46:01;43.57;37.72;50.29;;
72276;Laerm;61204;49.980;8.358;2023-02-15T00:48:26;42.46;37.54;54.40;;
72276;Laerm;61204;49.980;8.358;2023-02-15T00:50:56;45.07;37.87;55.99;;
72276;Laerm;61204;49.980;8.358;2023-02-15T00:53:24;46.68;42.26;53.63;;
72276;Laerm;61204;49.980;8.358;2023-02-15T00:55:49;46.04;38.76;52.37;;
72276;Laerm;61204;49.980;8.358;2023-02-15T00:58:16;46.18;38.84;58.07;;
72276;Laerm;61204;49.980;8.358;2023-02-15T01:00:44;47.15;41.63;54.19;;
72276;Laerm;61204;49.980;8.358;2023-02-15T01:03:11;48.10;38.79;60.62;;
72276;Laerm;61204;49.980;8.358;2023-02-15T01:05:37;45.43;40.19;56.82;;
72276;Laerm;61204;49.980;8.358;2023-02-15T01:08:05;46.47;37.28;58.31;;
72276;Laerm;61204;49.980;8.358;2023-02-15T01:10:33;50.44;41.44;60.31;;
72276;Laerm;61204;49.980;8.358;2023-02-15T01:12:59;52.52;43.49;60.99;;
72276;Laerm;61204;49.980;8.358;2023-02-15T01:15:24;51.96;43.21;60.92;;
72276;Laerm;61204;49.980;8.358;2023-02-15T01:17:50;49.47;40.57;58.59;;
72276;Laerm;61204;49.980;8.358;2023-02-15T01:20:19;51.03;42.39;60.49;;
72276;Laerm;61204;49.980;8.358;2023-02-15T01:22:44;49.59;39.68;59.70;;
72276;Laerm;61204;49.980;8.358;2023-02-15T01:25:18;48.64;41.30;59.41;;
72276;Laerm;61204;49.980;8.358;2023-02-15T01:27:45;47.73;40.88;59.68;;
72276;Laerm;61204;49.980;8.358;2023-02-15T01:30:12;43.61;35.91;49.41;;
72276;Laerm;61204;49.980;8.358;2023-02-15T01:32:39;44.10;37.90;51.88;;
72276;Laerm;61204;49.980;8.358;2023-02-15T01:35:05;42.16;34.65;58.53;;
72276;Laerm;61204;49.980;8.358;2023-02-15T01:37:33;43.06;37.18;51.65;;
72276;Laerm;61204;49.980;8.358;2023-02-15T01:40:00;43.70;36.55;57.72;;
72276;Laerm;61204;49.980;8.358;2023-02-15T01:42:29;45.11;40.19;51.21;;
72276;Laerm;61204;49.980;8.358;2023-02-15T01:44:58;43.77;36.69;50.64;;
72276;Laerm;61204;49.980;8.358;2023-02-15T01:47:36;44.43;38.76;53.20;;
72276;Laerm;61204;49.980;8.358;2023-02-15T01:50:40;45.20;39.26;60.56;;
72276;Laerm;61204;49.980;8.358;2023-02-15T01:53:19;51.44;41.26;61.32;;
72276;Laerm;61204;49.980;8.358;2023-02-15T01:55:57;44.84;37.82;52.61;;
72276;Laerm;61204;49.980;8.358;2023-02-15T01:58:27;44.66;37.73;55.69;;
72276;Laerm;61204;49.980;8.358;2023-02-15T02:00:57;43.31;37.41;50.32;;
72276;Laerm;61204;49.980;8.358;2023-02-15T02:06:21;42.70;36.65;49.79;;
72276;Laerm;61204;49.980;8.358;2023-02-15T02:08:47;46.96;39.89;55.76;;
72276;Laerm;61204;49.980;8.358;2023-02-15T02:11:14;45.66;38.04;59.30;;
72276;Laerm;61204;49.980;8.358;2023-02-15T02:13:43;46.98;36.97;60.00;;
72276;Laerm;61204;49.980;8.358;2023-02-15T02:16:26;48.32;39.85;62.05;;
72276;Laerm;61204;49.980;8.358;2023-02-15T02:27:49;46.31;39.73;56.76;;
72276;Laerm;61204;49.980;8.358;2023-02-15T02:30:40;43.74;38.09;49.79;;
72276;Laerm;61204;49.980;8.358;2023-02-15T02:33:32;43.14;37.99;57.12;;
72276;Laerm;61204;49.980;8.358;2023-02-15T02:44:59;46.04;38.58;52.27;;
72276;Laerm;61204;49.980;8.358;2023-02-15T02:47:35;44.67;35.20;53.55;;
72276;Laerm;61204;49.980;8.358;2023-02-15T02:50:12;45.82;40.79;58.40;;
72276;Laerm;61204;49.980;8.358;2023-02-15T03:00:37;45.89;39.62;51.12;;
72276;Laerm;61204;49.980;8.358;2023-02-15T03:06:09;45.07;40.24;56.57;;
72276;Laerm;61204;49.980;8.358;2023-02-15T03:08:46;45.87;41.52;50.12;;
72276;Laerm;61204;49.980;8.358;2023-02-15T03:11:12;46.86;39.62;58.30;;
72276;Laerm;61204;49.980;8.358;2023-02-15T03:13:39;44.02;39.03;50.45;;
72276;Laerm;61204;49.980;8.358;2023-02-15T03:16:08;46.49;40.61;55.52;;
72276;Laerm;61204;49.980;8.358;2023-02-15T03:18:55;44.86;37.60;50.41;;
72276;Laerm;61204;49.980;8.358;2023-02-15T03:21:38;46.32;39.11;60.24;;
72276;Laerm;61204;49.980;8.358;2023-02-15T03:24:17;51.37;40.20;67.27;;
72276;Laerm;61204;49.980;8.358;2023-02-15T03:26:48;46.45;40.06;53.19;;
72276;Laerm;61204;49.980;8.358;2023-02-15T03:29:17;46.00;41.50;51.75;;
72276;Laerm;61204;49.980;8.358;2023-02-15T03:31:49;46.45;42.45;51.22;;
72276;Laerm;61204;49.980;8.358;2023-02-15T03:34:17;46.14;40.69;51.15;;
72276;Laerm;61204;49.980;8.358;2023-02-15T03:39:59;46.54;41.26;57.94;;
72276;Laerm;61204;49.980;8.358;2023-02-15T03:42:49;47.80;42.09;59.33;;
72276;Laerm;61204;49.980;8.358;2023-02-15T03:45:30;47.03;41.11;57.03;;
72276;Laerm;61204;49.980;8.358;2023-02-15T03:47:58;48.14;43.49;54.34;;
72276;Laerm;61204;49.980;8.358;2023-02-15T03:50:37;50.08;43.56;60.22;;
72276;Laerm;61204;49.980;8.358;2023-02-15T03:53:23;55.73;43.86;63.78;;
72276;Laerm;61204;49.980;8.358;2023-02-15T03:55:54;50.73;45.31;60.06;;
72276;Laerm;61204;49.980;8.358;2023-02-15T03:58:22;52.42;45.36;63.99;;
72276;Laerm;61204;49.980;8.358;2023-02-15T04:01:22;49.48;43.23;59.36;;
72276;Laerm;61204;49.980;8.358;2023-02-15T04:04:19;54.93;44.98;67.22;;
72276;Laerm;61204;49.980;8.358;2023-02-15T04:06:46;54.30;45.11;63.58;;
72276;Laerm;61204;49.980;8.358;2023-02-15T04:09:12;56.43;43.48;68.22;;
72276;Laerm;61204;49.980;8.358;2023-02-15T04:11:56;57.97;44.20;71.62;;
72276;Laerm;61204;49.980;8.358;2023-02-15T04:14:22;52.30;44.76;62.26;;
72276;Laerm;61204;49.980;8.358;2023-02-15T04:17:08;50.54;45.67;56.43;;
72276;Laerm;61204;49.980;8.358;2023-02-15T04:19:33;50.15;45.35;54.53;;
72276;Laerm;61204;49.980;8.358;2023-02-15T04:22:18;52.32;47.03;61.48;;
72276;Laerm;61204;49.980;8.358;2023-02-15T04:25:02;53.50;45.67;64.75;;
72276;Laerm;61204;49.980;8.358;2023-02-15T04:27:58;54.48;47.29;63.60;;
72276;Laerm;61204;49.980;8.358;2023-02-15T04:30:25;49.91;45.24;54.61;;
72276;Laerm;61204;49.980;8.358;2023-02-15T04:32:53;53.29;46.02;68.28;;
72276;Laerm;61204;49.980;8.358;2023-02-15T04:35:19;56.57;45.99;69.82;;
72276;Laerm;61204;49.980;8.358;2023-02-15T04:37:47;48.31;44.78;52.78;;
72276;Laerm;61204;49.980;8.358;2023-02-15T04:40:15;48.86;45.19;52.57;;
72276;Laerm;61204;49.980;8.358;2023-02-15T04:42:40;57.57;45.91;69.43;;
72276;Laerm;61204;49.980;8.358;2023-02-15T04:45:06;51.75;46.32;63.05;;
72276;Laerm;61204;49.980;8.358;2023-02-15T04:47:32;50.66;45.71;56.11;;
72276;Laerm;61204;49.980;8.358;2023-02-15T04:49:58;50.56;46.85;54.38;;
72276;Laerm;61204;49.980;8.358;2023-02-15T04:52:23;50.37;46.36;54.35;;
72276;Laerm;61204;49.980;8.358;2023-02-15T04:54:48;49.84;43.82;54.83;;
72276;Laerm;61204;49.980;8.358;2023-02-15T04:57:14;50.13;46.84;54.06;;
72276;Laerm;61204;49.980;8.358;2023-02-15T04:59:40;49.64;44.65;56.52;;
72276;Laerm;61204;49.980;8.358;2023-02-15T05:02:05;50.36;46.22;53.83;;
72276;Laerm;61204;49.980;8.358;2023-02-15T05:04:34;53.64;46.01;85.51;;
72276;Laerm;61204;49.980;8.358;2023-02-15T05:06:59;53.47;45.14;67.87;;
72276;Laerm;61204;49.980;8.358;2023-02-15T05:09:25;50.40;46.84;59.53;;
72276;Laerm;61204;49.980;8.358;2023-02-15T05:11:52;49.89;44.92;54.89;;
72276;Laerm;61204;49.980;8.358;2023-02-15T05:14:20;51.24;46.73;60.22;;
72276;Laerm;61204;49.980;8.358;2023-02-15T05:16:46;50.39;45.41;61.46;;
72276;Laerm;61204;49.980;8.358;2023-02-15T05:19:11;52.14;46.82;61.98;;
72276;Laerm;61204;49.980;8.358;2023-02-15T05:21:37;52.17;48.90;55.98;;
72276;Laerm;61204;49.980;8.358;2023-02-15T05:24:02;54.52;48.95;65.75;;
72276;Laerm;61204;49.980;8.358;2023-02-15T05:26:48;53.69;49.05;62.34;;
72276;Laerm;61204;49.980;8.358;2023-02-15T05:29:32;54.07;48.79;64.89;;
72276;Laerm;61204;49.980;8.358;2023-02-15T05:31:57;54.06;48.03;60.55;;
72276;Laerm;61204;49.980;8.358;2023-02-15T05:34:23;54.05;49.82;61.35;;
72276;Laerm;61204;49.980;8.358;2023-02-15T05:36:48;52.09;48.38;56.25;;
72276;Laerm;61204;49.980;8.358;2023-02-15T05:39:14;51.33;47.83;55.40;;
72276;Laerm;61204;49.980;8.358;2023-02-15T05:41:39;52.89;48.19;65.25;;
72276;Laerm;61204;49.980;8.358;2023-02-15T05:44:07;52.14;47.44;56.24;;
72276;Laerm;61204;49.980;8.358;2023-02-15T05:46:32;52.90;49.07;59.78;;
72276;Laerm;61204;49.980;8.358;2023-02-15T05:48:58;51.84;48.59;55.74;;
72276;Laerm;61204;49.980;8.358;2023-02-15T05:51:23;52.30;48.39;58.65;;
72276;Laerm;61204;49.980;8.358;2023-02-15T05:53:48;54.48;46.51;65.86;;
72276;Laerm;61204;49.980;8.358;2023-02-15T05:56:14;52.89;47.82;65.83;;
72276;Laerm;61204;49.980;8.358;2023-02-15T05:58:41;51.77;48.01;58.35;;
72276;Laerm;61204;49.980;8.358;2023-02-15T06:01:12;52.13;47.67;57.06;;
72276;Laerm;61204;49.980;8.358;2023-02-15T06:03:38;53.00;47.91;58.10;;
72276;Laerm;61204;49.980;8.358;2023-02-15T06:06:03;52.25;48.32;56.78;;
72276;Laerm;61204;49.980;8.358;2023-02-15T06:08:31;53.72;49.32;66.69;;
72276;Laerm;61204;49.980;8.358;2023-02-15T06:10:57;53.89;49.02;61.50;;
72276;Laerm;61204;49.980;8.358;2023-02-15T06:13:22;53.41;48.31;58.53;;
72276;Laerm;61204;49.980;8.358;2023-02-15T06:15:48;51.66;47.81;56.17;;
72276;Laerm;61204;49.980;8.358;2023-02-15T06:18:13;52.92;49.16;59.97;;
72276;Laerm;61204;49.980;8.358;2023-02-15T06:20:39;53.76;48.84;60.49;;
72276;Laerm;61204;49.980;8.358;2023-02-15T06:23:07;52.64;49.09;57.30;;
72276;Laerm;61204;49.980;8.358;2023-02-15T06:25:32;54.38;49.21;62.96;;
72276;Laerm;61204;49.980;8.358;2023-02-15T06:27:57;54.34;48.54;64.59;;
72276;Laerm;61204;49.980;8.358;2023-02-15T06:30:23;53.91;49.09;63.64;;
72276;Laerm;61204;49.980;8.358;2023-02-15T06:32:48;53.78;48.85;62.19;;
72276;Laerm;61204;49.980;8.358;2023-02-15T06:35:14;53.61;50.03;58.43;;
72276;Laerm;61204;49.980;8.358;2023-02-15T06:37:45;52.59;48.82;59.50;;
72276;Laerm;61204;49.980;8.358;2023-02-15T06:40:11;52.84;48.84;63.72;;
72276;Laerm;61204;49.980;8.358;2023-02-15T06:42:36;56.36;49.97;68.90;;
72276;Laerm;61204;49.980;8.358;2023-02-15T06:45:02;54.91;49.96;64.07;;
72276;Laerm;61204;49.980;8.358;2023-02-15T06:47:28;54.10;49.08;63.10;;
72276;Laerm;61204;49.980;8.358;2023-02-15T06:49:53;57.63;51.03;65.36;;
72276;Laerm;61204;49.980;8.358;2023-02-15T06:52:19;54.62;50.16;62.57;;
72276;Laerm;61204;49.980;8.358;2023-02-15T06:54:44;56.07;49.57;72.56;;
72276;Laerm;61204;49.980;8.358;2023-02-15T06:57:10;54.61;49.42;65.89;;
72276;Laerm;61204;49.980;8.358;2023-02-15T06:59:35;54.82;50.61;65.95;;
72276;Laerm;61204;49.980;8.358;2023-02-15T07:02:00;55.61;50.21;72.79;;
72276;Laerm;61204;49.980;8.358;2023-02-15T07:04:26;54.97;50.31;60.71;;
72276;Laerm;61204;49.980;8.358;2023-02-15T07:06:53;55.76;51.29;62.06;;
72276;Laerm;61204;49.980;8.358;2023-02-15T07:09:19;56.82;52.16;62.81;;
72276;Laerm;61204;49.980;8.358;2023-02-15T07:11:44;54.67;50.62;66.49;;
72276;Laerm;61204;49.980;8.358;2023-02-15T07:14:28;56.02;50.79;65.23;;
72276;Laerm;61204;49.980;8.358;2023-02-15T07:16:54;55.66;51.65;67.21;;
72276;Laerm;61204;49.980;8.358;2023-02-15T07:19:19;54.16;50.76;59.95;;
72276;Laerm;61204;49.980;8.358;2023-02-15T07:21:45;54.99;49.75;66.13;;
72276;Laerm;61204;49.980;8.358;2023-02-15T07:24:10;53.82;49.16;62.89;;
72276;Laerm;61204;49.980;8.358;2023-02-15T07:26:36;53.87;49.93;63.45;;
72276;Laerm;61204;49.980;8.358;2023-02-15T07:29:02;53.89;50.32;58.26;;
72276;Laerm;61204;49.980;8.358;2023-02-15T07:31:27;57.30;50.06;68.08;;
72276;Laerm;61204;49.980;8.358;2023-02-15T07:33:55;54.31;49.62;64.55;;
72276;Laerm;61204;49.980;8.358;2023-02-15T07:36:21;55.30;50.74;64.49;;
72276;Laerm;61204;49.980;8.358;2023-02-15T07:38:46;53.91;49.28;61.53;;
72276;Laerm;61204;49.980;8.358;2023-02-15T07:41:14;54.96;49.54;69.77;;
72276;Laerm;61204;49.980;8.358;2023-02-15T07:43:43;53.73;49.27;62.03;;
72276;Laerm;61204;49.980;8.358;2023-02-15T07:46:13;55.46;51.21;70.58;;
72276;Laerm;61204;49.980;8.358;2023-02-15T07:48:40;54.74;50.81;58.41;;
72276;Laerm;61204;49.980;8.358;2023-02-15T07:51:09;54.95;51.03;61.16;;
72276;Laerm;61204;49.980;8.358;2023-02-15T07:53:36;54.79;50.73;67.52;;
72276;Laerm;61204;49.980;8.358;2023-02-15T07:56:05;54.40;49.56;65.97;;
72276;Laerm;61204;49.980;8.358;2023-02-15T07:58:35;54.20;50.44;58.87;;
72276;Laerm;61204;49.980;8.358;2023-02-15T08:01:18;56.65;50.57;64.32;;
72276;Laerm;61204;49.980;8.358;2023-02-15T08:03:44;54.80;51.24;61.83;;
72276;Laerm;61204;49.980;8.358;2023-02-15T08:06:09;55.70;51.45;62.86;;
72276;Laerm;61204;49.980;8.358;2023-02-15T08:08:37;53.89;50.70;60.40;;
72276;Laerm;61204;49.980;8.358;2023-02-15T08:16:53;54.15;50.20;60.56;;
72276;Laerm;61204;49.980;8.358;2023-02-15T08:19:27;54.55;49.49;58.35;;
72276;Laerm;61204;49.980;8.358;2023-02-15T08:22:00;54.86;51.08;62.76;;
72276;Laerm;61204;49.980;8.358;2023-02-15T08:24:30;53.95;49.99;59.02;;
72276;Laerm;61204;49.980;8.358;2023-02-15T08:26:57;54.29;51.34;57.87;;
72276;Laerm;61204;49.980;8.358;2023-02-15T08:29:27;53.73;50.30;65.02;;
72276;Laerm;61204;49.980;8.358;2023-02-15T08:32:00;53.58;49.36;59.15;;
72276;Laerm;61204;49.980;8.358;2023-02-15T08:34:32;53.52;48.56;67.31;;
72276;Laerm;61204;49.980;8.358;2023-02-15T08:36:58;53.55;49.49;65.27;;
72276;Laerm;61204;49.980;8.358;2023-02-15T08:39:23;55.36;50.85;59.57;;
72276;Laerm;61204;49.980;8.358;2023-02-15T08:41:49;55.25;49.47;60.35;;
72276;Laerm;61204;49.980;8.358;2023-02-15T08:44:19;53.61;47.70;58.97;;
72276;Laerm;61204;49.980;8.358;2023-02-15T08:46:47;55.60;51.97;61.27;;
72276;Laerm;61204;49.980;8.358;2023-02-15T08:49:18;55.96;51.29;67.56;;
72276;Laerm;61204;49.980;8.358;2023-02-15T08:51:45;58.62;49.43;78.11;;
72276;Laerm;61204;49.980;8.358;2023-02-15T08:54:18;54.78;49.88;63.85;;
72276;Laerm;61204;49.980;8.358;2023-02-15T08:56:46;54.23;50.83;61.34;;
72276;Laerm;61204;49.980;8.358;2023-02-15T08:59:21;52.10;47.50;61.54;;
72276;Laerm;61204;49.980;8.358;2023-02-15T09:01:49;52.53;47.25;57.67;;
72276;Laerm;61204;49.980;8.358;2023-02-15T09:04:18;54.36;46.76;60.31;;
72276;Laerm;61204;49.980;8.358;2023-02-15T09:06:46;55.45;49.44;65.33;;
72276;Laerm;61204;49.980;8.358;2023-02-15T09:09:12;54.23;48.60;62.57;;
72276;Laerm;61204;49.980;8.358;2023-02-15T09:11:43;53.48;48.36;60.24;;
72276;Laerm;61204;49.980;8.358;2023-02-15T09:14:20;54.41;48.00;67.15;;
72276;Laerm;61204;49.980;8.358;2023-02-15T09:16:48;55.20;51.55;63.69;;
72276;Laerm;61204;49.980;8.358;2023-02-15T09:19:17;55.37;49.83;65.60;;
72276;Laerm;61204;49.980;8.358;2023-02-15T09:21:43;54.28;49.91;61.79;;
72276;Laerm;61204;49.980;8.358;2023-02-15T09:24:13;55.09;49.45;71.36;;
72276;Laerm;61204;49.980;8.358;2023-02-15T09:26:42;54.02;48.94;61.62;;
72276;Laerm;61204;49.980;8.358;2023-02-15T09:29:10;55.81;49.37;73.95;;
72276;Laerm;61204;49.980;8.358;2023-02-15T09:31:48;57.45;50.99;68.51;;
72276;Laerm;61204;49.980;8.358;2023-02-15T09:34:17;57.00;49.45;69.43;;
72276;Laerm;61204;49.980;8.358;2023-02-15T09:36:44;59.63;51.77;75.38;;
72276;Laerm;61204;49.980;8.358;2023-02-15T09:53:59;53.87;48.68;63.71;;
72276;Laerm;61204;49.980;8.358;2023-02-15T09:57:06;54.91;49.52;75.81;;
72276;Laerm;61204;49.980;8.358;2023-02-15T09:59:50;53.17;49.18;57.56;;
72276;Laerm;61204;49.980;8.358;2023-02-15T10:02:35;52.74;48.13;56.77;;
72276;Laerm;61204;49.980;8.358;2023-02-15T10:08:42;54.35;49.16;75.54;;
72276;Laerm;61204;49.980;8.358;2023-02-15T10:11:26;55.38;50.17;76.41;;
72276;Laerm;61204;49.980;8.358;2023-02-15T10:17:32;59.56;48.78;81.13;;
72276;Laerm;61204;49.980;8.358;2023-02-15T10:20:19;52.95;47.48;61.50;;
72276;Laerm;61204;49.980;8.358;2023-02-15T10:23:02;51.84;47.72;58.63;;
72276;Laerm;61204;49.980;8.358;2023-02-15T10:28:23;56.47;47.20;75.71;;
72276;Laerm;61204;49.980;8.358;2023-02-15T10:31:07;53.26;48.42;76.84;;
72276;Laerm;61204;49.980;8.358;2023-02-15T10:33:41;57.48;49.08;79.67;;
72276;Laerm;61204;49.980;8.358;2023-02-15T10:48:26;55.02;49.01;64.39;;
72276;Laerm;61204;49.980;8.358;2023-02-15T10:50:59;54.51;48.89;62.29;;
72276;Laerm;61204;49.980;8.358;2023-02-15T11:07:40;53.75;49.30;61.99;;
72276;Laerm;61204;49.980;8.358;2023-02-15T11:12:56;54.45;50.08;60.12;;
72276;Laerm;61204;49.980;8.358;2023-02-15T11:15:45;53.95;49.56;68.41;;
72276;Laerm;61204;49.980;8.358;2023-02-15T11:18:32;53.37;48.02;63.33;;
72276;Laerm;61204;49.980;8.358;2023-02-15T11:21:09;55.42;49.15;65.30;;
72276;Laerm;61204;49.980;8.358;2023-02-15T11:23:43;55.80;50.19;71.29;;
72276;Laerm;61204;49.980;8.358;2023-02-15T11:26:36;54.35;49.23;70.54;;
72276;Laerm;61204;49.980;8.358;2023-02-15T11:29:21;53.60;49.08;59.04;;
72276;Laerm;61204;49.980;8.358;2023-02-15T11:32:18;53.49;49.39;62.86;;
72276;Laerm;61204;49.980;8.358;2023-02-15T11:37:54;53.08;48.61;61.12;;
72276;Laerm;61204;49.980;8.358;2023-02-15T11:40:27;51.87;48.14;57.55;;
72276;Laerm;61204;49.980;8.358;2023-02-15T11:43:04;52.86;48.72;60.58;;
72276;Laerm;61204;49.980;8.358;2023-02-15T11:45:33;52.73;48.70;57.97;;
72276;Laerm;61204;49.980;8.358;2023-02-15T11:48:11;53.12;46.75;61.65;;
72276;Laerm;61204;49.980;8.358;2023-02-15T11:50:38;53.07;47.76;62.87;;
72276;Laerm;61204;49.980;8.358;2023-02-15T11:53:18;53.52;47.76;62.06;;
72276;Laerm;61204;49.980;8.358;2023-02-15T11:55:48;52.86;47.57;70.76;;
72276;Laerm;61204;49.980;8.358;2023-02-15T11:58:39;52.98;49.10;57.65;;
72276;Laerm;61204;49.980;8.358;2023-02-15T12:01:21;52.94;48.72;58.89;;
72276;Laerm;61204;49.980;8.358;2023-02-15T12:03:51;54.67;48.60;64.77;;
72276;Laerm;61204;49.980;8.358;2023-02-15T12:06:29;53.41;49.44;61.20;;
72276;Laerm;61204;49.980;8.358;2023-02-15T12:09:34;55.13;48.61;63.52;;
72276;Laerm;61204;49.980;8.358;2023-02-15T12:14:56;53.04;48.84;58.53;;
72276;Laerm;61204;49.980;8.358;2023-02-15T12:17:52;54.34;49.91;64.15;;
72276;Laerm;61204;49.980;8.358;2023-02-15T12:22:54;54.08;49.47;68.17;;
72276;Laerm;61204;49.980;8.358;2023-02-15T12:25:54;54.18;50.24;61.97;;
72276;Laerm;61204;49.980;8.358;2023-02-15T12:28:34;55.32;50.20;68.04;;
72276;Laerm;61204;49.980;8.358;2023-02-15T12:31:04;57.00;50.67;65.70;;
72276;Laerm;61204;49.980;8.358;2023-02-15T12:33:39;54.59;49.83;61.94;;
72276;Laerm;61204;49.980;8.358;2023-02-15T12:36:32;54.89;50.68;66.89;;
72276;Laerm;61204;49.980;8.358;2023-02-15T12:44:35;53.65;49.06;61.42;;
72276;Laerm;61204;49.980;8.358;2023-02-15T12:47:17;53.92;49.51;59.04;;
72276;Laerm;61204;49.980;8.358;2023-02-15T12:49:45;54.38;50.16;60.71;;
72276;Laerm;61204;49.980;8.358;2023-02-15T12:52:28;54.99;49.25;64.79;;
72276;Laerm;61204;49.980;8.358;2023-02-15T12:54:54;52.84;47.68;59.22;;
72276;Laerm;61204;49.980;8.358;2023-02-15T12:59:54;54.26;50.75;57.66;;
72276;Laerm;61204;49.980;8.358;2023-02-15T13:04:57;53.40;49.59;58.57;;
72276;Laerm;61204;49.980;8.358;2023-02-15T13:07:31;53.58;48.98;64.39;;
72276;Laerm;61204;49.980;8.358;2023-02-15T13:09:57;53.43;49.61;61.41;;
72276;Laerm;61204;49.980;8.358;2023-02-15T13:12:27;53.74;49.55;58.78;;
72276;Laerm;61204;49.980;8.358;2023-02-15T13:14:58;53.65;49.74;58.91;;
72276;Laerm;61204;49.980;8.358;2023-02-15T13:17:29;53.17;48.40;63.54;;
72276;Laerm;61204;49.980;8.358;2023-02-15T13:20:03;55.20;51.05;60.16;;
72276;Laerm;61204;49.980;8.358;2023-02-15T13:22:38;54.85;49.73;59.36;;
72276;Laerm;61204;49.980;8.358;2023-02-15T13:25:22;54.44;48.48;67.27;;
72276;Laerm;61204;49.980;8.358;2023-02-15T13:27:56;53.13;48.85;59.97;;
72276;Laerm;61204;49.980;8.358;2023-02-15T13:32:58;51.53;47.68;59.46;;
72276;Laerm;61204;49.980;8.358;2023-02-15T13:36:00;54.07;49.03;60.81;;
72276;Laerm;61204;49.980;8.358;2023-02-15T13:38:54;52.32;48.45;59.61;;
72276;Laerm;61204;49.980;8.358;2023-02-15T13:56:33;52.85;48.02;58.59;;
72276;Laerm;61204;49.980;8.358;2023-02-15T13:59:26;52.88;49.08;58.25;;
72276;Laerm;61204;49.980;8.358;2023-02-15T14:05:31;54.18;47.54;61.44;;
72276;Laerm;61204;49.980;8.358;2023-02-15T14:08:19;53.66;48.08;62.29;;
72276;Laerm;61204;49.980;8.358;2023-02-15T14:17:05;54.58;50.63;62.47;;
72276;Laerm;61204;49.980;8.358;2023-02-15T14:22:08;53.04;48.55;59.09;;
72276;Laerm;61204;49.980;8.358;2023-02-15T14:24:43;52.93;48.80;60.45;;
72276;Laerm;61204;49.980;8.358;2023-02-15T14:30:03;53.36;49.53;57.25;;
72276;Laerm;61204;49.980;8.358;2023-02-15T14:32:41;52.99;48.85;58.34;;
72276;Laerm;61204;49.980;8.358;2023-02-15T14:35:18;53.82;49.51;61.15;;
72276;Laerm;61204;49.980;8.358;2023-02-15T14:38:30;53.87;50.20;60.45;;
72276;Laerm;61204;49.980;8.358;2023-02-15T14:41:17;53.70;50.11;60.28;;
72276;Laerm;61204;49.980;8.358;2023-02-15T14:44:17;54.31;50.15;62.75;;
72276;Laerm;61204;49.980;8.358;2023-02-15T14:46:59;52.87;48.82;59.11;;
72276;Laerm;61204;49.980;8.358;2023-02-15T14:49:40;52.30;48.70;56.72;;
72276;Laerm;61204;49.980;8.358;2023-02-15T14:52:08;53.88;48.77;60.21;;
72276;Laerm;61204;49.980;8.358;2023-02-15T15:02:50;53.50;48.69;61.89;;
72276;Laerm;61204;49.980;8.358;2023-02-15T15:05:34;52.39;47.87;59.63;;
72276;Laerm;61204;49.980;8.358;2023-02-15T15:08:05;52.83;48.13;59.14;;
72276;Laerm;61204;49.980;8.358;2023-02-15T15:10:35;52.87;47.46;58.77;;
72276;Laerm;61204;49.980;8.358;2023-02-15T15:16:23;53.31;49.07;60.77;;
72276;Laerm;61204;49.980;8.358;2023-02-15T15:18:50;54.08;48.78;66.79;;
72276;Laerm;61204;49.980;8.358;2023-02-15T15:27:41;53.12;48.44;60.06;;
72276;Laerm;61204;49.980;8.358;2023-02-15T15:32:47;53.60;47.06;61.34;;
72276;Laerm;61204;49.980;8.358;2023-02-15T15:38:51;53.94;49.49;60.04;;
72276;Laerm;61204;49.980;8.358;2023-02-15T15:41:41;53.65;49.53;59.45;;
72276;Laerm;61204;49.980;8.358;2023-02-15T15:47:24;58.44;47.50;82.01;;
72276;Laerm;61204;49.980;8.358;2023-02-15T15:49:57;52.91;48.59;58.04;;
72276;Laerm;61204;49.980;8.358;2023-02-15T15:52:28;53.70;49.37;66.71;;
72276;Laerm;61204;49.980;8.358;2023-02-15T15:55:04;53.81;48.99;62.15;;
72276;Laerm;61204;49.980;8.358;2023-02-15T15:57:34;52.83;49.29;56.96;;
72276;Laerm;61204;49.980;8.358;2023-02-15T16:00:05;52.94;48.82;66.20;;
72276;Laerm;61204;49.980;8.358;2023-02-15T16:02:53;53.75;49.44;61.26;;
72276;Laerm;61204;49.980;8.358;2023-02-15T16:05:20;52.25;48.76;57.29;;
72276;Laerm;61204;49.980;8.358;2023-02-15T16:07:46;51.94;49.01;55.53;;
72276;Laerm;61204;49.980;8.358;2023-02-15T16:10:27;52.77;48.94;59.66;;
72276;Laerm;61204;49.980;8.358;2023-02-15T16:12:54;52.78;48.37;60.55;;
72276;Laerm;61204;49.980;8.358;2023-02-15T16:15:34;53.51;49.26;59.71;;
72276;Laerm;61204;49.980;8.358;2023-02-15T16:18:01;51.70;47.61;59.62;;
72276;Laerm;61204;49.980;8.358;2023-02-15T16:20:34;53.08;47.85;59.16;;
72276;Laerm;61204;49.980;8.358;2023-02-15T16:26:49;55.01;49.07;62.46;;
72276;Laerm;61204;49.980;8.358;2023-02-15T16:29:18;55.55;50.62;67.46;;
72276;Laerm;61204;49.980;8.358;2023-02-15T16:32:01;55.27;49.99;65.29;;
72276;Laerm;61204;49.980;8.358;2023-02-15T16:34:26;54.57;50.25;64.21;;
72276;Laerm;61204;49.980;8.358;2023-02-15T16:37:16;53.99;50.03;63.73;;
72276;Laerm;61204;49.980;8.358;2023-02-15T16:39:45;53.43;48.79;60.85;;
72276;Laerm;61204;49.980;8.358;2023-02-15T16:42:15;54.44;49.98;63.08;;
72276;Laerm;61204;49.980;8.358;2023-02-15T16:44:43;54.49;49.42;59.00;;
72276;Laerm;61204;49.980;8.358;2023-02-15T16:47:18;54.47;49.27;62.36;;
72276;Laerm;61204;49.980;8.358;2023-02-15T16:49:48;55.03;50.64;62.42;;
72276;Laerm;61204;49.980;8.358;2023-02-15T16:52:24;54.70;51.07;60.67;;
72276;Laerm;61204;49.980;8.358;2023-02-15T16:54:58;55.17;50.13;61.69;;
72276;Laerm;61204;49.980;8.358;2023-02-15T16:57:32;54.82;49.75;62.36;;
72276;Laerm;61204;49.980;8.358;2023-02-15T17:00:14;54.83;50.08;60.47;;
72276;Laerm;61204;49.980;8.358;2023-02-15T17:02:54;53.51;49.89;60.24;;
72276;Laerm;61204;49.980;8.358;2023-02-15T17:05:20;52.68;49.26;55.92;;
72276;Laerm;61204;49.980;8.358;2023-02-15T17:10:39;52.38;49.20;57.06;;
72276;Laerm;61204;49.980;8.358;2023-02-15T17:13:15;52.94;49.54;57.22;;